createdAt,value
2022-08-03T00:01:30.322Z,409.58
2022-08-03T00:03:57.093Z,451.67
2022-08-03T00:06:23.848Z,473.20
2022-08-03T00:08:50.711Z,465.40
2022-08-03T00:11:17.898Z,454.85
2022-08-03T00:13:44.962Z,531.42
2022-08-03T00:16:12.009Z,454.25
2022-08-03T00:18:38.963Z,416.42
2022-08-03T00:21:05.770Z,605.17
2022-08-03T00:23:52.178Z,428.40
2022-08-03T00:26:20.921Z,469.42
2022-08-03T00:28:48.411Z,471.65
2022-08-03T00:31:15.354Z,433.02
2022-08-03T00:33:58.382Z,618.30
2022-08-03T00:36:27.525Z,401.58
2022-08-03T00:38:55.420Z,381.08
2022-08-03T00:41:22.374Z,622.47
2022-08-03T00:43:49.128Z,420.25
2022-08-03T00:46:20.788Z,545.35
2022-08-03T00:48:50.129Z,459.90
2022-08-03T00:51:17.211Z,445.38
2022-08-03T00:53:44.027Z,532.67
2022-08-03T00:56:15.201Z,506.17
2022-08-03T00:58:45.042Z,495.92
2022-08-03T01:01:12.519Z,483.17
2022-08-03T01:03:39.726Z,480.75
2022-08-03T01:06:36.192Z,473.88
2022-08-03T01:09:13.904Z,523.97
2022-08-03T01:12:15.776Z,469.58
2022-08-03T01:14:52.095Z,658.80
2022-08-03T01:17:34.692Z,498.77
2022-08-03T01:20:09.573Z,513.92
2022-08-03T01:23:33.504Z,506.80
2022-08-03T01:26:10.700Z,571.47
2022-08-03T01:29:44.796Z,579.97
2022-08-03T01:32:59.008Z,472.10
2022-08-03T01:35:17.064Z,680.40
2022-08-03T01:38:07.503Z,522.35
2022-08-03T01:40:36.721Z,594.75
2022-08-03T01:43:06.415Z,703.97
2022-08-03T01:45:34.419Z,695.22
2022-08-03T01:48:03.186Z,625.80
2022-08-03T01:50:32.127Z,999.90
2022-08-03T01:52:59.883Z,999.90
2022-08-03T01:55:28.942Z,999.90
2022-08-03T01:58:05.453Z,999.90
2022-08-03T02:00:36.117Z,999.90
2022-08-03T02:03:08.796Z,999.90
2022-08-03T02:05:36.759Z,999.90
2022-08-03T02:08:06.099Z,999.90
2022-08-03T02:10:36.309Z,999.90
2022-08-03T02:13:08.474Z,999.90
2022-08-03T02:15:37.965Z,999.90
2022-08-03T02:18:08.111Z,999.90
2022-08-03T02:20:37.665Z,999.90
2022-08-03T02:23:04.618Z,999.90
2022-08-03T02:25:33.659Z,999.90
2022-08-03T02:28:13.029Z,999.90
2022-08-03T02:30:43.141Z,999.90
2022-08-03T02:33:20.967Z,999.90
2022-08-03T02:35:49.799Z,999.90
2022-08-03T02:38:20.384Z,999.90
2022-08-03T02:40:49.916Z,999.90
2022-08-03T02:43:20.375Z,999.90
2022-08-03T02:45:50.439Z,999.90
2022-08-03T02:48:27.038Z,999.90
2022-08-03T02:50:57.500Z,999.90
2022-08-03T02:53:27.164Z,999.90
2022-08-03T02:55:56.719Z,999.90
2022-08-03T02:58:24.744Z,999.90
2022-08-03T03:00:53.614Z,999.90
2022-08-03T03:03:22.118Z,999.90
2022-08-03T03:05:55.927Z,999.90
2022-08-03T03:08:28.358Z,999.90
2022-08-03T03:11:01.304Z,999.90
2022-08-03T03:13:30.498Z,999.90
2022-08-03T03:16:01.580Z,999.90
2022-08-03T03:18:31.229Z,999.90
2022-08-03T03:21:01.162Z,999.90
2022-08-03T03:23:29.188Z,999.90
2022-08-03T03:25:58.428Z,999.90
2022-08-03T03:28:25.753Z,999.90
2022-08-03T03:30:53.415Z,999.90
2022-08-03T03:33:22.079Z,999.90
2022-08-03T03:35:50.096Z,999.90
2022-08-03T03:38:17.002Z,999.90
2022-08-03T03:40:44.229Z,999.90
2022-08-03T03:43:12.916Z,999.90
2022-08-03T03:45:42.988Z,999.90
2022-08-03T03:48:10.164Z,999.90
2022-08-03T03:50:40.770Z,999.90
2022-08-03T03:53:11.124Z,999.90
2022-08-03T03:55:59.100Z,999.90
2022-08-03T03:58:25.735Z,999.90
2022-08-03T04:00:53.753Z,999.90
2022-08-03T04:03:20.600Z,999.90
2022-08-03T04:06:05.648Z,999.90
2022-08-03T04:08:50.979Z,999.90
2022-08-03T04:11:30.417Z,999.90
2022-08-03T04:14:18.070Z,999.90
2022-08-03T04:16:55.221Z,999.90
2022-08-03T04:19:30.945Z,999.90
2022-08-03T04:22:02.227Z,999.90
2022-08-03T04:24:36.724Z,999.90
2022-08-03T04:27:07.326Z,999.90
2022-08-03T04:29:38.589Z,999.90
2022-08-03T04:32:12.417Z,999.90
2022-08-03T04:34:39.564Z,999.90
2022-08-03T04:37:38.040Z,999.90
2022-08-03T04:40:09.374Z,999.90
2022-08-03T04:42:37.943Z,999.90
2022-08-03T04:45:06.690Z,999.90
2022-08-03T04:47:34.253Z,999.90
2022-08-03T04:50:02.674Z,999.90
2022-08-03T04:52:30.425Z,999.90
2022-08-03T04:54:57.729Z,999.90
2022-08-03T04:57:24.490Z,999.90
2022-08-03T05:00:01.332Z,999.90
2022-08-03T05:02:29.954Z,422.85
2022-08-03T05:04:56.742Z,400.10
2022-08-03T05:07:24.761Z,398.85
2022-08-03T05:09:57.553Z,353.85
2022-08-03T05:12:32.300Z,360.25
2022-08-03T05:15:00.378Z,364.60
2022-08-03T05:17:28.303Z,429.02
2022-08-03T05:19:55.979Z,388.85
2022-08-03T05:22:23.660Z,407.98
2022-08-03T05:24:50.390Z,393.85
2022-08-03T05:27:20.013Z,302.88
2022-08-03T05:29:49.468Z,290.63
2022-08-03T05:32:17.882Z,134.27
2022-08-03T05:34:45.145Z,133.43
2022-08-03T05:59:37.002Z,23.75
2022-08-03T06:02:01.589Z,22.02
2022-08-03T06:04:28.371Z,26.35
2022-08-03T06:06:55.850Z,20.80
2022-08-03T06:09:22.593Z,28.95
2022-08-03T06:11:58.552Z,24.17
2022-08-03T06:14:25.317Z,23.27
2022-08-03T06:16:52.063Z,26.13
2022-08-03T06:19:18.820Z,25.58
2022-08-03T06:21:45.622Z,25.73
2022-08-03T06:24:13.507Z,25.00
2022-08-03T06:26:42.381Z,27.20
2022-08-03T06:29:09.935Z,27.77
2022-08-03T06:31:36.823Z,30.40
2022-08-03T06:34:33.937Z,758.92
2022-08-03T06:36:53.142Z,999.90
2022-08-03T06:39:23.381Z,999.90
2022-08-03T06:44:17.612Z,999.90
2022-08-03T06:46:44.401Z,999.90
2022-08-03T06:49:11.299Z,999.90
2022-08-03T06:52:04.117Z,999.90
2022-08-03T06:54:24.977Z,999.90
2022-08-03T06:56:51.909Z,999.90
2022-08-03T07:00:06.336Z,999.90
2022-08-03T07:02:05.857Z,999.90
2022-08-03T07:04:33.276Z,999.90
2022-08-03T07:07:00.027Z,999.90
2022-08-03T07:09:26.836Z,999.90
2022-08-03T07:11:54.347Z,999.90
2022-08-03T07:14:21.883Z,999.90
2022-08-03T07:16:48.922Z,999.90
2022-08-03T07:19:15.788Z,999.90
2022-08-03T07:21:42.530Z,999.90
2022-08-03T07:24:09.315Z,999.90
2022-08-03T07:26:36.056Z,999.90
2022-08-03T07:29:03.283Z,999.90
2022-08-03T07:31:34.438Z,999.90
2022-08-03T07:34:01.408Z,999.90
2022-08-03T07:36:28.186Z,999.90
2022-08-03T07:38:54.970Z,999.90
2022-08-03T07:41:22.198Z,999.90
2022-08-03T07:43:48.977Z,999.90
2022-08-03T07:46:15.986Z,999.90
2022-08-03T07:48:42.742Z,999.90
2022-08-03T07:51:09.497Z,999.90
2022-08-03T07:53:37.887Z,999.90
2022-08-03T07:56:14.264Z,999.90
2022-08-03T07:58:41.012Z,999.90
2022-08-03T08:01:07.792Z,999.90
2022-08-03T08:03:49.848Z,999.90
2022-08-03T08:06:20.137Z,999.90
2022-08-03T08:08:46.972Z,999.90
2022-08-03T08:11:13.764Z,999.90
2022-08-03T08:13:40.540Z,999.90
2022-08-03T08:16:07.323Z,999.90
2022-08-03T08:18:34.413Z,999.90
2022-08-03T08:21:03.129Z,999.90
2022-08-03T08:23:40.857Z,999.90
2022-08-03T08:26:10.808Z,999.90
2022-08-03T08:28:37.562Z,999.90
2022-08-03T08:31:04.456Z,999.90
2022-08-03T08:36:18.549Z,999.90
2022-08-03T08:38:45.453Z,999.90
2022-08-03T08:41:14.777Z,999.90
2022-08-03T08:43:42.719Z,999.90
2022-08-03T08:46:23.123Z,999.90
2022-08-03T08:48:52.015Z,999.90
2022-08-03T08:51:22.022Z,999.90
2022-08-03T08:53:53.055Z,999.90
2022-08-03T08:56:23.013Z,999.90
2022-08-03T08:58:55.072Z,999.90
2022-08-03T09:01:21.921Z,999.90
2022-08-03T09:03:49.063Z,999.90
2022-08-03T09:06:16.391Z,999.90
2022-08-03T09:08:43.472Z,999.90
2022-08-03T09:11:11.956Z,999.90
2022-08-03T09:13:39.191Z,999.90
2022-08-03T09:16:09.817Z,999.90
2022-08-03T09:18:36.580Z,999.90
2022-08-03T09:21:32.595Z,999.90
2022-08-03T09:24:04.712Z,999.90
2022-08-03T09:26:34.977Z,999.90
2022-08-03T09:29:14.476Z,999.90
2022-08-03T09:34:17.053Z,999.90
2022-08-03T09:36:45.704Z,999.90
2022-08-03T09:39:16.356Z,999.90
2022-08-03T09:41:46.878Z,999.90
2022-08-03T09:44:24.333Z,999.90
2022-08-03T09:46:56.845Z,999.90
2022-08-03T09:49:25.157Z,999.90
2022-08-03T09:52:31.433Z,999.90
2022-08-03T09:54:40.546Z,999.90
2022-08-03T09:57:07.472Z,999.90
2022-08-03T09:59:34.810Z,999.90
2022-08-03T10:02:01.852Z,999.90
2022-08-03T10:04:29.236Z,999.90
2022-08-03T10:07:11.229Z,999.90
2022-08-03T10:09:38.639Z,999.90
2022-08-03T10:12:12.189Z,999.90
2022-08-03T10:14:41.797Z,999.90
2022-08-03T10:17:10.103Z,999.90
2022-08-03T10:19:37.022Z,999.90
2022-08-03T10:22:27.296Z,999.90
2022-08-03T10:27:38.711Z,999.90
2022-08-03T10:30:08.959Z,999.90
2022-08-03T10:32:42.201Z,999.90
2022-08-03T10:35:21.019Z,999.90
2022-08-03T10:38:04.032Z,999.90
2022-08-03T10:40:47.975Z,999.90
2022-08-03T10:43:23.003Z,999.90
2022-08-03T10:45:51.183Z,999.90
2022-08-03T10:48:19.598Z,999.90
2022-08-03T10:50:48.893Z,999.90
2022-08-03T10:53:17.978Z,999.90
2022-08-03T10:56:05.788Z,999.90
2022-08-03T10:58:57.563Z,999.90
2022-08-03T11:01:59.262Z,999.90
2022-08-03T11:04:29.161Z,999.90
2022-08-03T11:07:23.909Z,999.90
2022-08-03T11:09:56.056Z,999.90
2022-08-03T11:12:30.660Z,999.90
2022-08-03T11:15:02.989Z,999.90
2022-08-03T11:17:30.229Z,999.90
2022-08-03T11:19:58.466Z,999.90
2022-08-03T11:22:49.034Z,999.90
2022-08-03T11:25:53.989Z,999.90
2022-08-03T11:28:28.831Z,999.90
2022-08-03T11:30:55.637Z,999.90
2022-08-03T11:33:32.138Z,999.90
2022-08-03T11:36:01.413Z,999.90
2022-08-03T11:38:28.329Z,999.90
2022-08-03T11:40:55.077Z,999.90
2022-08-03T11:43:31.673Z,999.90
2022-08-03T11:46:04.539Z,999.90
2022-08-03T11:48:35.945Z,999.90
2022-08-03T11:51:05.182Z,999.90
2022-08-03T11:53:32.672Z,999.90
2022-08-03T11:56:12.949Z,999.90
2022-08-03T11:59:01.342Z,999.90
2022-08-03T12:01:35.477Z,999.90
2022-08-03T12:04:06.738Z,999.90
2022-08-03T12:06:54.951Z,999.90
2022-08-03T12:09:22.400Z,999.90
2022-08-03T12:11:50.710Z,999.90
2022-08-03T12:14:50.131Z,999.90
2022-08-03T12:17:12.037Z,999.90
2022-08-03T12:19:43.627Z,999.90
2022-08-03T12:22:10.617Z,999.90
2022-08-03T12:24:46.930Z,999.90
2022-08-03T12:27:25.166Z,999.90
2022-08-03T12:29:58.995Z,999.90
2022-08-03T12:32:28.161Z,999.90
2022-08-03T12:35:00.724Z,999.90
2022-08-03T12:37:27.981Z,999.90
2022-08-03T12:40:09.609Z,999.90
2022-08-03T12:42:39.487Z,999.90
2022-08-03T12:45:30.307Z,999.90
2022-08-03T12:48:00.395Z,999.90
2022-08-03T12:50:35.962Z,999.90
2022-08-03T12:53:08.818Z,999.90
2022-08-03T12:56:04.426Z,999.90
2022-08-03T12:58:35.716Z,999.90
2022-08-03T13:01:10.102Z,999.90
2022-08-03T13:03:50.384Z,999.90
2022-08-03T13:06:25.236Z,999.90
2022-08-03T13:09:08.225Z,999.90
2022-08-03T13:11:55.781Z,999.90
2022-08-03T13:14:23.673Z,999.90
2022-08-03T13:16:50.962Z,999.90
2022-08-03T13:19:17.807Z,999.90
2022-08-03T13:22:02.122Z,999.90
2022-08-03T13:24:32.702Z,999.90
2022-08-03T13:27:00.671Z,999.90
2022-08-03T13:29:47.414Z,999.90
2022-08-03T13:32:14.142Z,999.90
2022-08-03T13:34:40.897Z,999.90
2022-08-03T13:37:09.977Z,999.90
2022-08-03T13:39:58.471Z,999.90
2022-08-03T13:42:24.365Z,999.90
2022-08-03T13:44:51.161Z,999.90
2022-08-03T13:47:18.132Z,999.90
2022-08-03T13:50:00.118Z,999.90
2022-08-03T13:52:33.377Z,999.90
2022-08-03T13:55:01.205Z,999.90
2022-08-03T13:58:02.973Z,999.90
2022-08-03T14:00:27.725Z,999.90
2022-08-03T14:03:16.424Z,999.90
2022-08-03T14:05:45.987Z,999.90
2022-08-03T14:08:12.992Z,999.90
2022-08-03T14:10:43.522Z,999.90
2022-08-03T14:15:39.289Z,999.90
2022-08-03T14:18:15.818Z,999.90
2022-08-03T14:20:56.812Z,999.90
2022-08-03T14:23:25.537Z,999.90
2022-08-03T14:25:53.126Z,999.90
2022-08-03T14:28:24.105Z,999.90
2022-08-03T14:30:58.041Z,39.67
2022-08-03T14:33:24.900Z,35.95
2022-08-03T14:35:52.545Z,36.92
2022-08-03T14:38:20.020Z,26.38
2022-08-03T14:40:47.806Z,66.45
2022-08-03T14:43:16.422Z,254.93
2022-08-03T14:45:43.403Z,999.90
2022-08-03T14:50:34.601Z,999.90
2022-08-03T14:50:57.069Z,999.90
2022-08-03T14:53:24.143Z,999.90
2022-08-03T14:55:52.769Z,999.90
2022-08-03T14:58:25.198Z,999.90
2022-08-03T15:00:55.400Z,999.90
2022-08-03T15:03:24.796Z,999.90
2022-08-03T15:05:56.717Z,999.90
2022-08-03T15:08:25.711Z,999.90
2022-08-03T15:10:54.515Z,999.90
2022-08-03T15:13:21.678Z,999.90
2022-08-03T15:15:49.575Z,999.90
2022-08-03T15:18:16.432Z,999.90
2022-08-03T15:20:45.361Z,999.90
2022-08-03T15:23:14.904Z,999.90
2022-08-03T15:26:31.582Z,999.90
2022-08-03T15:28:30.040Z,999.90
2022-08-03T15:30:56.869Z,999.90
2022-08-03T15:33:23.658Z,999.90
2022-08-03T15:35:50.509Z,999.90
2022-08-03T15:38:17.525Z,24.98
2022-08-03T15:40:44.934Z,24.88
2022-08-03T15:43:11.857Z,27.80
2022-08-03T15:45:40.403Z,23.83
2022-08-03T15:48:09.214Z,24.40
2022-08-03T15:50:36.161Z,26.23
2022-08-03T15:53:03.705Z,25.52
2022-08-03T15:55:31.121Z,26.02
2022-08-03T15:59:09.104Z,30.00
2022-08-03T16:00:44.858Z,22.50
2022-08-03T16:03:11.632Z,25.23
2022-08-03T16:05:38.718Z,22.38
2022-08-03T16:08:09.041Z,22.27
2022-08-03T16:10:39.571Z,23.80
2022-08-03T16:13:07.352Z,67.95
2022-08-03T16:15:34.318Z,27.95
2022-08-03T16:18:06.678Z,27.13
2022-08-03T16:20:35.121Z,26.58
2022-08-03T16:23:10.988Z,25.55
2022-08-03T16:25:40.113Z,27.08
2022-08-03T16:28:13.407Z,28.33
2022-08-03T16:30:42.879Z,26.70
2022-08-03T16:33:10.787Z,26.08
2022-08-03T16:35:37.987Z,27.77
2022-08-03T16:38:09.753Z,27.92
2022-08-03T16:40:37.441Z,24.48
2022-08-03T16:43:18.094Z,26.65
2022-08-03T16:45:45.442Z,29.63
2022-08-03T16:48:12.190Z,26.85
2022-08-03T16:50:39.107Z,27.05
2022-08-03T16:53:15.697Z,27.92
2022-08-03T16:55:53.634Z,26.90
2022-08-03T16:58:34.494Z,25.58
2022-08-03T17:01:23.977Z,27.45
2022-08-03T17:04:01.576Z,25.02
2022-08-03T17:06:38.381Z,23.98
2022-08-03T17:09:18.084Z,25.52
2022-08-03T17:11:48.002Z,24.63
2022-08-03T17:14:21.969Z,26.63
2022-08-03T17:16:52.468Z,25.67
2022-08-03T17:19:23.716Z,25.15
2022-08-03T17:22:04.047Z,28.05
2022-08-03T17:24:44.943Z,25.20
2022-08-03T17:28:42.265Z,24.20
2022-08-03T17:30:13.605Z,23.85
2022-08-03T17:32:53.499Z,26.33
2022-08-03T17:35:34.471Z,25.02
2022-08-03T17:38:05.196Z,26.35
2022-08-03T17:40:34.584Z,24.38
2022-08-03T17:44:13.313Z,23.60
2022-08-03T17:45:52.806Z,22.92
2022-08-03T17:48:25.164Z,24.23
2022-08-03T17:50:59.984Z,24.27
2022-08-03T17:53:33.090Z,24.15
2022-08-03T17:56:44.913Z,25.35
2022-08-03T17:59:50.576Z,24.70
2022-08-03T18:03:13.127Z,23.50
2022-08-03T18:06:11.718Z,28.90
2022-08-03T18:08:51.064Z,27.30
2022-08-03T18:14:17.254Z,25.02
2022-08-03T18:16:46.762Z,23.92
2022-08-03T18:19:14.567Z,23.80
2022-08-03T18:22:02.749Z,23.20
2022-08-03T18:24:30.282Z,23.27
2022-08-03T18:26:59.410Z,22.50
2022-08-03T18:29:27.642Z,24.02
2022-08-03T18:32:03.134Z,22.10
2022-08-03T18:34:34.239Z,23.15
2022-08-03T18:37:07.474Z,21.00
2022-08-03T18:42:26.206Z,20.27
2022-08-03T18:44:56.245Z,18.08
2022-08-03T18:47:50.703Z,17.67
2022-08-03T18:54:02.824Z,19.55
2022-08-03T18:56:48.230Z,20.42
2022-08-03T18:59:31.057Z,18.63
2022-08-03T19:02:06.022Z,18.25
2022-08-03T19:04:41.153Z,19.00
2022-08-03T19:07:18.176Z,20.30
2022-08-03T19:09:56.185Z,19.80
2022-08-03T19:12:56.031Z,20.48
2022-08-03T19:15:36.531Z,21.45
2022-08-03T19:20:35.684Z,23.77
2022-08-03T19:23:02.440Z,19.80
2022-08-03T19:25:34.769Z,21.75
2022-08-03T19:28:06.060Z,18.67
2022-08-03T19:30:46.488Z,22.27
2022-08-03T19:33:20.900Z,20.10
2022-08-03T19:35:54.956Z,24.23
2022-08-03T19:38:28.374Z,23.50
2022-08-03T19:40:59.532Z,23.85
2022-08-03T19:46:16.822Z,26.30
2022-08-03T19:48:55.005Z,26.52
2022-08-03T19:51:58.269Z,27.05
2022-08-03T19:54:14.968Z,30.48
2022-08-03T19:59:19.236Z,26.15
2022-08-03T20:04:33.706Z,23.23
2022-08-03T20:07:03.760Z,22.65
2022-08-03T20:09:33.301Z,21.17
2022-08-03T20:12:00.583Z,19.85
2022-08-03T20:14:28.533Z,17.58
2022-08-03T20:16:56.179Z,19.33
2022-08-03T20:19:23.107Z,18.25
2022-08-03T20:21:51.367Z,16.33
2022-08-03T20:24:26.910Z,7.80
2022-08-03T20:26:57.754Z,7.15
2022-08-03T20:30:06.429Z,7.43
2022-08-03T20:32:29.710Z,8.60
2022-08-03T20:34:58.665Z,8.70
2022-08-03T20:37:25.486Z,9.20
2022-08-03T20:39:54.207Z,8.38
2022-08-03T20:42:22.162Z,9.10
2022-08-03T20:45:05.601Z,8.05
2022-08-03T20:47:41.611Z,9.00
2022-08-03T20:50:18.297Z,11.00
2022-08-03T20:52:50.555Z,10.30
2022-08-03T20:55:18.843Z,11.68
2022-08-03T20:57:49.163Z,11.82
2022-08-03T21:00:19.431Z,11.63
2022-08-03T21:02:48.940Z,11.63
2022-08-03T21:05:15.923Z,10.73
2022-08-03T21:08:05.464Z,10.82
2022-08-03T21:10:37.995Z,11.30
2022-08-03T21:12:57.106Z,26.42
2022-08-03T21:13:04.439Z,21.45
2022-08-03T21:13:08.292Z,23.02
2022-08-03T21:13:10.761Z,17.10
2022-08-03T21:13:41.309Z,12.48
2022-08-03T21:16:14.213Z,13.82
2022-08-03T21:18:49.819Z,12.23
2022-08-03T21:21:21.012Z,10.85
2022-08-03T21:23:53.988Z,12.15
2022-08-03T21:26:24.461Z,12.82
2022-08-03T21:28:53.888Z,14.93
2022-08-03T21:31:25.506Z,17.73
2022-08-03T21:34:00.807Z,25.02
2022-08-03T21:36:30.936Z,13.57
2022-08-03T21:38:59.027Z,19.15
2022-08-03T21:41:29.250Z,21.85
2022-08-03T21:43:56.835Z,26.38
2022-08-03T21:46:24.144Z,20.25
2022-08-03T21:50:05.756Z,25.90
2022-08-03T21:51:52.220Z,23.83
2022-08-03T21:54:21.627Z,30.00
2022-08-03T21:56:51.256Z,28.65
2022-08-03T21:59:20.310Z,44.20
2022-08-03T22:01:49.062Z,29.08
2022-08-03T22:04:50.008Z,18.30
2022-08-03T22:07:08.502Z,31.17
2022-08-03T22:09:36.584Z,38.08
2022-08-03T22:12:04.590Z,38.78
2022-08-03T22:14:34.728Z,30.00
2022-08-03T22:17:06.188Z,32.47
2022-08-03T22:19:34.068Z,38.17
2022-08-03T22:22:05.920Z,37.95
2022-08-03T22:24:36.565Z,60.33
2022-08-03T22:27:23.080Z,24.42
2022-08-03T22:29:51.302Z,63.35
2022-08-03T22:32:18.175Z,63.22
2022-08-03T22:34:47.779Z,52.80
2022-08-03T22:37:19.392Z,32.70
2022-08-03T22:39:46.509Z,53.28
2022-08-03T22:42:13.865Z,52.55
2022-08-03T22:44:40.791Z,30.70
2022-08-03T22:47:09.690Z,58.13
2022-08-03T22:49:37.815Z,27.83
2022-08-03T22:52:05.790Z,42.80
2022-08-03T22:54:33.180Z,47.22
2022-08-03T22:57:00.692Z,51.55
2022-08-03T22:59:41.200Z,29.10
2022-08-03T23:02:21.238Z,33.63
2022-08-03T23:04:55.760Z,24.58
2022-08-03T23:07:38.266Z,39.85
2022-08-03T23:10:13.275Z,26.75
2022-08-03T23:12:43.191Z,19.77
2022-08-03T23:15:13.235Z,22.40
2022-08-03T23:17:57.903Z,19.80
2022-08-03T23:20:26.813Z,17.25
2022-08-03T23:22:54.931Z,24.13
2022-08-03T23:25:22.005Z,19.00
2022-08-03T23:28:05.146Z,123.55
2022-08-03T23:30:37.224Z,63.53
2022-08-03T23:33:04.685Z,16.98
2022-08-03T23:36:28.327Z,19.73
2022-08-03T23:38:37.680Z,28.73
2022-08-03T23:41:07.676Z,25.42
2022-08-03T23:43:44.794Z,17.98
2022-08-03T23:46:21.908Z,18.35
2022-08-03T23:48:48.716Z,66.78
2022-08-03T23:51:59.299Z,21.35
2022-08-03T23:54:59.990Z,20.45
2022-08-03T23:57:52.323Z,27.85
